createdAt,value
2022-12-11T00:00:41.383Z,67.83
2022-12-11T00:01:41.369Z,67.93
2022-12-11T00:02:41.426Z,68.03
2022-12-11T00:03:41.415Z,67.93
2022-12-11T00:04:41.353Z,67.27
2022-12-11T00:05:41.343Z,67.27
2022-12-11T00:06:41.355Z,67.93
2022-12-11T00:07:41.331Z,67.27
2022-12-11T00:08:41.328Z,67.36
2022-12-11T00:09:41.335Z,67.46
2022-12-11T00:10:41.312Z,67.17
2022-12-11T00:11:41.314Z,67.46
2022-12-11T00:12:41.305Z,67.36
2022-12-11T00:13:41.303Z,67.46
2022-12-11T00:14:41.312Z,67.55
2022-12-11T00:15:41.294Z,67.40
2022-12-11T00:16:41.321Z,67.77
2022-12-11T00:17:41.267Z,67.68
2022-12-11T00:18:41.279Z,67.77
2022-12-11T00:19:41.275Z,67.58
2022-12-11T00:20:41.265Z,67.49
2022-12-11T00:21:41.257Z,67.58
2022-12-11T00:22:41.238Z,67.68
2022-12-11T00:23:41.232Z,67.49
2022-12-11T00:24:41.247Z,67.40
2022-12-11T00:25:41.220Z,67.68
2022-12-11T00:26:41.232Z,67.68
2022-12-11T00:27:41.221Z,67.87
2022-12-11T00:28:41.206Z,67.87
2022-12-11T00:29:41.215Z,67.68
2022-12-11T00:30:41.243Z,67.68
2022-12-11T00:31:41.210Z,67.87
2022-12-11T00:32:41.182Z,67.77
2022-12-11T00:33:41.183Z,67.40
2022-12-11T00:34:41.179Z,67.77
2022-12-11T00:35:41.164Z,67.30
2022-12-11T00:36:41.169Z,67.40
2022-12-11T00:37:41.178Z,67.40
2022-12-11T00:38:41.159Z,67.58
2022-12-11T00:39:41.147Z,67.40
2022-12-11T00:40:41.126Z,67.40
2022-12-11T00:41:41.118Z,67.30
2022-12-11T00:42:41.126Z,67.40
2022-12-11T00:43:41.115Z,67.49
2022-12-11T00:44:41.102Z,67.30
2022-12-11T00:45:41.198Z,67.49
2022-12-11T00:46:41.113Z,67.49
2022-12-11T00:47:41.091Z,67.68
2022-12-11T00:48:41.076Z,67.68
2022-12-11T00:49:43.938Z,67.21
2022-12-11T00:50:41.086Z,67.30
2022-12-11T00:51:41.052Z,67.58
2022-12-11T00:52:41.051Z,67.11
2022-12-11T00:53:41.042Z,67.21
2022-12-11T00:54:41.041Z,67.58
2022-12-11T00:55:41.029Z,67.68
2022-12-11T00:56:41.037Z,67.11
2022-12-11T00:57:41.034Z,67.21
2022-12-11T00:58:41.021Z,67.40
2022-12-11T00:59:41.017Z,67.21
2022-12-11T01:00:41.016Z,67.49
2022-12-11T01:01:41.016Z,67.30
2022-12-11T01:02:41.061Z,67.40
2022-12-11T01:03:40.997Z,67.40
2022-12-11T01:04:41.000Z,67.30
2022-12-11T01:05:40.985Z,67.21
2022-12-11T01:06:40.990Z,67.30
2022-12-11T01:07:40.969Z,67.21
2022-12-11T01:08:40.971Z,67.49
2022-12-11T01:09:40.956Z,67.40
2022-12-11T01:10:41.005Z,67.30
2022-12-11T01:11:40.935Z,67.30
2022-12-11T01:12:40.962Z,67.30
2022-12-11T01:13:40.930Z,67.30
2022-12-11T01:14:40.923Z,67.21
2022-12-11T01:15:41.766Z,67.30
2022-12-11T01:16:40.979Z,66.92
2022-12-11T01:17:40.916Z,66.92
2022-12-11T01:18:40.917Z,66.92
2022-12-11T01:19:40.897Z,67.11
2022-12-11T01:20:40.894Z,66.92
2022-12-11T01:21:40.872Z,67.21
2022-12-11T01:22:40.880Z,67.21
2022-12-11T01:23:40.873Z,67.01
2022-12-11T01:24:40.870Z,67.11
2022-12-11T01:25:40.861Z,67.01
2022-12-11T01:26:40.876Z,67.01
2022-12-11T01:27:40.850Z,67.01
2022-12-11T01:28:40.849Z,67.21
2022-12-11T01:29:40.822Z,66.92
2022-12-11T01:30:40.886Z,67.11
2022-12-11T01:31:40.826Z,67.21
2022-12-11T01:32:40.815Z,67.11
2022-12-11T01:33:40.801Z,67.01
2022-12-11T01:34:40.852Z,67.01
2022-12-11T01:35:40.791Z,67.11
2022-12-11T01:36:40.784Z,67.11
2022-12-11T01:37:40.803Z,67.11
2022-12-11T01:38:40.784Z,67.11
2022-12-11T01:39:40.783Z,67.11
2022-12-11T01:40:40.775Z,67.01
2022-12-11T01:41:40.749Z,67.11
2022-12-11T01:42:40.766Z,67.11
2022-12-11T01:43:40.745Z,67.21
2022-12-11T01:44:40.753Z,67.01
2022-12-11T01:45:40.801Z,67.21
2022-12-11T01:46:40.732Z,67.01
2022-12-11T01:47:40.730Z,67.11
2022-12-11T01:48:42.389Z,67.11
2022-12-11T01:49:40.719Z,67.11
2022-12-11T01:50:40.720Z,67.01
2022-12-11T01:51:40.710Z,67.21
2022-12-11T01:52:40.709Z,67.14
2022-12-11T01:53:40.679Z,67.21
2022-12-11T01:54:40.702Z,67.11
2022-12-11T01:55:40.684Z,67.21
2022-12-11T01:56:40.664Z,67.11
2022-12-11T01:57:40.664Z,67.21
2022-12-11T01:58:40.658Z,67.21
2022-12-11T01:59:40.665Z,67.24
2022-12-11T02:00:40.638Z,67.21
2022-12-11T02:01:40.762Z,67.21
2022-12-11T02:02:40.694Z,67.11
2022-12-11T02:03:40.644Z,67.01
2022-12-11T02:04:40.616Z,67.01
2022-12-11T02:05:40.630Z,67.24
2022-12-11T02:06:40.640Z,67.01
2022-12-11T02:07:40.617Z,67.01
2022-12-11T02:08:40.609Z,67.24
2022-12-11T02:09:40.590Z,67.05
2022-12-11T02:10:40.583Z,67.24
2022-12-11T02:11:40.576Z,67.01
2022-12-11T02:12:40.585Z,67.14
2022-12-11T02:13:40.572Z,67.21
2022-12-11T02:14:40.560Z,67.21
2022-12-11T02:15:40.567Z,67.14
2022-12-11T02:16:40.578Z,67.21
2022-12-11T02:17:40.559Z,67.24
2022-12-11T02:18:40.553Z,67.21
2022-12-11T02:19:40.536Z,67.21
2022-12-11T02:20:40.538Z,67.14
2022-12-11T02:21:40.533Z,67.24
2022-12-11T02:22:40.548Z,67.14
2022-12-11T02:23:40.503Z,67.43
2022-12-11T02:24:40.506Z,67.01
2022-12-11T02:25:40.500Z,67.30
2022-12-11T02:26:40.494Z,67.24
2022-12-11T02:27:40.482Z,67.24
2022-12-11T02:28:40.479Z,67.33
2022-12-11T02:29:40.473Z,67.05
2022-12-11T02:30:40.488Z,67.43
2022-12-11T02:31:40.502Z,67.01
2022-12-11T02:32:40.461Z,67.05
2022-12-11T02:33:40.461Z,67.05
2022-12-11T02:34:40.468Z,67.24
2022-12-11T02:35:40.445Z,67.05
2022-12-11T02:36:40.446Z,67.05
2022-12-11T02:37:40.444Z,67.05
2022-12-11T02:38:40.445Z,67.05
2022-12-11T02:39:40.420Z,67.33
2022-12-11T02:40:40.404Z,67.21
2022-12-11T02:41:40.399Z,67.52
2022-12-11T02:42:40.395Z,67.24
2022-12-11T02:43:40.386Z,67.24
2022-12-11T02:44:40.388Z,67.33
2022-12-11T02:45:40.455Z,67.24
2022-12-11T02:46:40.401Z,67.24
2022-12-11T02:47:40.373Z,67.24
2022-12-11T02:48:40.350Z,67.33
2022-12-11T02:49:40.363Z,67.52
2022-12-11T02:50:40.360Z,67.24
2022-12-11T02:51:40.337Z,67.24
2022-12-11T02:52:40.335Z,67.33
2022-12-11T02:53:40.338Z,67.24
2022-12-11T02:54:40.357Z,67.24
2022-12-11T02:55:40.314Z,67.24
2022-12-11T02:56:40.317Z,67.52
2022-12-11T02:57:40.315Z,67.24
2022-12-11T02:58:40.304Z,67.24
2022-12-11T02:59:40.305Z,67.43
2022-12-11T03:00:40.287Z,67.40
2022-12-11T03:01:40.357Z,67.24
2022-12-11T03:02:40.368Z,67.43
2022-12-11T03:03:40.264Z,67.24
2022-12-11T03:04:40.256Z,67.24
2022-12-11T03:05:40.256Z,67.24
2022-12-11T03:06:40.257Z,67.43
2022-12-11T03:07:40.285Z,67.24
2022-12-11T03:08:40.247Z,67.21
2022-12-11T03:09:40.252Z,67.24
2022-12-11T03:10:40.263Z,67.24
2022-12-11T03:11:40.230Z,67.24
2022-12-11T03:12:40.207Z,67.24
2022-12-11T03:13:40.240Z,67.24
2022-12-11T03:14:40.195Z,67.24
2022-12-11T03:15:40.194Z,67.52
2022-12-11T03:16:40.240Z,67.43
2022-12-11T03:17:40.189Z,67.21
2022-12-11T03:18:40.175Z,67.43
2022-12-11T03:19:40.181Z,67.24
2022-12-11T03:20:40.174Z,67.43
2022-12-11T03:21:40.170Z,67.43
2022-12-11T03:22:40.169Z,67.43
2022-12-11T03:23:40.150Z,67.43
2022-12-11T03:24:40.152Z,67.14
2022-12-11T03:25:40.139Z,67.43
2022-12-11T03:26:40.147Z,67.43
2022-12-11T03:27:40.128Z,67.43
2022-12-11T03:28:40.116Z,67.24
2022-12-11T03:29:40.120Z,67.24
2022-12-11T03:30:40.186Z,67.24
2022-12-11T03:31:40.114Z,67.43
2022-12-11T03:32:40.087Z,67.43
2022-12-11T03:33:40.086Z,67.43
2022-12-11T03:34:40.100Z,67.43
2022-12-11T03:35:40.084Z,67.43
2022-12-11T03:36:40.061Z,67.43
2022-12-11T03:37:40.074Z,67.43
2022-12-11T03:38:40.055Z,67.52
2022-12-11T03:39:40.054Z,67.43
2022-12-11T03:40:40.062Z,67.43
2022-12-11T03:41:40.047Z,67.43
2022-12-11T03:42:40.044Z,67.14
2022-12-11T03:43:40.056Z,67.43
2022-12-11T03:44:40.017Z,67.33
2022-12-11T03:45:40.026Z,67.43
2022-12-11T03:46:40.032Z,67.43
2022-12-11T03:47:40.018Z,67.43
2022-12-11T03:48:40.009Z,67.43
2022-12-11T03:49:39.997Z,67.43
2022-12-11T03:50:39.983Z,67.43
2022-12-11T03:51:39.999Z,67.43
2022-12-11T03:52:45.527Z,66.76
2022-12-11T03:53:39.967Z,66.66
2022-12-11T03:54:39.959Z,67.52
2022-12-11T03:55:39.973Z,67.43
2022-12-11T03:56:39.948Z,67.43
2022-12-11T03:57:39.942Z,67.24
2022-12-11T03:58:39.949Z,67.52
2022-12-11T03:59:39.947Z,67.43
2022-12-11T04:00:39.936Z,67.11
2022-12-11T04:01:40.055Z,67.40
2022-12-11T04:02:39.919Z,67.40
2022-12-11T04:03:39.917Z,67.43
2022-12-11T04:04:39.968Z,67.43
2022-12-11T04:05:39.901Z,67.14
2022-12-11T04:06:39.902Z,67.24
2022-12-11T04:07:39.900Z,67.14
2022-12-11T04:08:39.888Z,67.14
2022-12-11T04:09:39.879Z,67.52
2022-12-11T04:10:39.864Z,67.43
2022-12-11T04:11:39.874Z,66.85
2022-12-11T04:12:39.847Z,67.05
2022-12-11T04:13:39.854Z,67.40
2022-12-11T04:15:23.707Z,66.63
2022-12-11T04:16:22.287Z,67.14
2022-12-11T04:17:22.256Z,67.21
2022-12-11T04:18:22.234Z,67.43
2022-12-11T04:19:22.244Z,67.05
2022-12-11T04:20:22.238Z,67.24
2022-12-11T04:21:22.239Z,67.24
2022-12-11T04:22:22.229Z,67.14
2022-12-11T04:23:22.224Z,67.52
2022-12-11T04:24:22.203Z,67.52
2022-12-11T04:25:22.218Z,67.43
2022-12-11T04:26:22.186Z,67.24
2022-12-11T04:27:22.193Z,66.56
2022-12-11T04:28:22.179Z,67.05
2022-12-11T04:29:22.192Z,67.14
2022-12-11T04:30:22.202Z,67.01
2022-12-11T04:31:22.440Z,66.66
2022-12-11T04:32:22.178Z,67.52
2022-12-11T04:33:22.166Z,66.66
2022-12-11T04:34:22.151Z,67.05
2022-12-11T04:35:22.170Z,66.47
2022-12-11T04:36:22.142Z,67.24
2022-12-11T04:37:22.125Z,66.85
2022-12-11T04:38:22.141Z,66.76
2022-12-11T04:39:22.114Z,67.05
2022-12-11T04:40:22.120Z,66.76
2022-12-11T04:41:22.121Z,66.95
2022-12-11T04:42:22.088Z,66.47
2022-12-11T04:43:22.084Z,67.21
2022-12-11T04:44:22.075Z,66.66
2022-12-11T04:45:22.090Z,67.05
2022-12-11T04:46:22.121Z,66.56
2022-12-11T04:47:22.081Z,67.52
2022-12-11T04:48:22.055Z,67.24
2022-12-11T04:49:22.083Z,66.76
2022-12-11T04:50:22.043Z,66.76
2022-12-11T04:51:22.037Z,67.52
2022-12-11T04:52:22.034Z,66.85
2022-12-11T04:53:22.026Z,66.66
2022-12-11T04:54:22.028Z,66.66
2022-12-11T04:55:22.034Z,66.66
2022-12-11T04:56:22.084Z,66.95
2022-12-11T04:57:22.003Z,66.63
2022-12-11T04:58:21.995Z,66.66
2022-12-11T04:59:21.985Z,66.66
2022-12-11T05:00:22.006Z,67.43
2022-12-11T05:01:22.069Z,66.66
2022-12-11T05:02:22.024Z,66.66
2022-12-11T05:03:21.985Z,66.66
2022-12-11T05:04:21.974Z,66.72
2022-12-11T05:05:21.958Z,66.66
2022-12-11T05:06:21.961Z,66.66
2022-12-11T05:07:21.956Z,67.24
2022-12-11T05:08:22.021Z,66.66
2022-12-11T05:09:21.926Z,66.66
2022-12-11T05:10:21.925Z,66.66
2022-12-11T05:11:21.912Z,66.66
2022-12-11T05:12:21.917Z,66.76
2022-12-11T05:13:21.918Z,66.66
2022-12-11T05:14:21.902Z,66.66
2022-12-11T05:15:21.911Z,66.53
2022-12-11T05:16:21.933Z,67.14
2022-12-11T05:17:21.889Z,66.66
2022-12-11T05:18:21.899Z,66.66
2022-12-11T05:19:21.895Z,66.66
2022-12-11T05:20:21.890Z,66.66
2022-12-11T05:21:21.874Z,66.66
2022-12-11T05:22:21.854Z,66.85
2022-12-11T05:23:21.837Z,66.76
2022-12-11T05:24:21.850Z,66.66
2022-12-11T05:25:21.829Z,66.66
2022-12-11T05:26:21.827Z,66.56
2022-12-11T05:27:21.835Z,66.66
2022-12-11T05:28:21.831Z,66.63
2022-12-11T05:29:21.824Z,66.85
2022-12-11T05:30:21.821Z,66.66
2022-12-11T05:31:21.811Z,66.63
2022-12-11T05:32:21.803Z,66.63
2022-12-11T05:33:21.797Z,66.85
2022-12-11T05:34:21.790Z,66.63
2022-12-11T05:35:21.808Z,66.85
2022-12-11T05:36:21.771Z,66.85
2022-12-11T05:37:21.754Z,66.66
2022-12-11T05:38:21.754Z,66.53
2022-12-11T05:39:21.758Z,67.49
2022-12-11T05:40:21.743Z,66.66
2022-12-11T05:41:21.757Z,66.66
2022-12-11T05:42:27.004Z,66.66
2022-12-11T05:43:21.722Z,66.66
2022-12-11T05:44:21.733Z,66.66
2022-12-11T05:45:21.718Z,66.63
2022-12-11T05:46:21.751Z,66.72
2022-12-11T05:47:21.692Z,66.66
2022-12-11T05:48:21.693Z,66.85
2022-12-11T05:49:25.946Z,66.76
2022-12-11T05:50:21.691Z,66.76
2022-12-11T05:51:21.701Z,66.76
2022-12-11T05:52:21.694Z,66.85
2022-12-11T05:53:21.667Z,66.76
2022-12-11T05:54:21.670Z,66.66
2022-12-11T05:55:21.644Z,66.66
2022-12-11T05:56:21.658Z,66.66
2022-12-11T05:57:21.630Z,66.66
2022-12-11T05:58:21.637Z,66.76
2022-12-11T05:59:21.637Z,66.76
2022-12-11T06:00:21.625Z,66.66
2022-12-11T06:01:21.617Z,66.76
2022-12-11T06:02:21.682Z,66.63
2022-12-11T06:03:21.599Z,66.85
2022-12-11T06:04:21.595Z,66.85
2022-12-11T06:05:21.590Z,66.66
2022-12-11T06:06:21.594Z,66.63
2022-12-11T06:07:21.643Z,66.82
2022-12-11T06:08:21.605Z,66.82
2022-12-11T06:09:21.566Z,66.66
2022-12-11T06:10:21.557Z,66.76
2022-12-11T06:11:24.160Z,66.66
2022-12-11T06:12:21.562Z,66.66
2022-12-11T06:13:21.539Z,66.66
2022-12-11T06:14:21.547Z,66.72
2022-12-11T06:15:21.523Z,66.66
2022-12-11T06:16:21.611Z,66.85
2022-12-11T06:17:21.533Z,66.56
2022-12-11T06:18:21.523Z,66.76
2022-12-11T06:19:21.500Z,66.66
2022-12-11T06:20:21.517Z,66.66
2022-12-11T06:21:21.502Z,66.66
2022-12-11T06:22:21.497Z,66.66
2022-12-11T06:23:21.545Z,66.85
2022-12-11T06:24:21.486Z,66.53
2022-12-11T06:25:21.482Z,66.85
2022-12-11T06:26:21.481Z,66.66
2022-12-11T06:27:21.453Z,66.63
2022-12-11T06:28:21.465Z,66.66
2022-12-11T06:29:21.458Z,66.66
2022-12-11T06:30:21.446Z,67.52
2022-12-11T06:31:21.495Z,66.66
2022-12-11T06:32:21.440Z,67.24
2022-12-11T06:33:21.414Z,66.66
2022-12-11T06:34:21.416Z,66.92
2022-12-11T06:35:21.417Z,66.72
2022-12-11T06:36:21.402Z,66.53
2022-12-11T06:37:21.410Z,66.66
2022-12-11T06:38:21.405Z,66.66
2022-12-11T06:39:21.408Z,66.63
2022-12-11T06:40:21.392Z,66.66
2022-12-11T06:41:21.383Z,66.72
2022-12-11T06:42:21.391Z,66.66
2022-12-11T06:43:21.356Z,66.63
2022-12-11T06:44:21.351Z,66.66
2022-12-11T06:45:21.351Z,66.63
2022-12-11T06:46:21.449Z,66.66
2022-12-11T06:47:21.335Z,66.63
2022-12-11T06:48:21.338Z,66.76
2022-12-11T06:49:21.324Z,66.63
2022-12-11T06:50:21.427Z,67.52
2022-12-11T06:51:21.308Z,66.63
2022-12-11T06:52:21.318Z,66.76
2022-12-11T06:53:21.313Z,66.63
2022-12-11T06:54:21.335Z,66.63
2022-12-11T06:55:21.301Z,66.66
2022-12-11T06:56:21.299Z,66.63
2022-12-11T06:57:21.280Z,67.43
2022-12-11T06:58:21.277Z,67.52
2022-12-11T06:59:21.259Z,66.63
2022-12-11T07:00:21.258Z,66.92
2022-12-11T07:01:21.339Z,67.01
2022-12-11T07:02:21.315Z,66.63
2022-12-11T07:03:21.233Z,66.66
2022-12-11T07:04:21.251Z,66.66
2022-12-11T07:05:21.239Z,66.63
2022-12-11T07:06:21.227Z,66.66
2022-12-11T07:07:21.208Z,66.63
2022-12-11T07:08:21.266Z,66.63
2022-12-11T07:09:21.204Z,66.72
2022-12-11T07:10:21.194Z,66.63
2022-12-11T07:11:21.211Z,66.63
2022-12-11T07:12:21.188Z,66.63
2022-12-11T07:13:21.173Z,66.63
2022-12-11T07:14:21.177Z,66.63
2022-12-11T07:15:21.170Z,66.63
2022-12-11T07:16:21.175Z,66.63
2022-12-11T07:17:21.147Z,66.66
2022-12-11T07:18:21.146Z,66.63
2022-12-11T07:19:21.139Z,66.63
2022-12-11T07:20:21.155Z,66.63
2022-12-11T07:21:21.141Z,66.63
2022-12-11T07:22:21.133Z,66.63
2022-12-11T07:23:21.114Z,66.63
2022-12-11T07:24:21.124Z,66.82
2022-12-11T07:25:21.101Z,66.63
2022-12-11T07:26:21.096Z,66.76
2022-12-11T07:27:21.123Z,66.63
2022-12-11T07:28:21.089Z,66.63
2022-12-11T07:29:21.078Z,66.63
2022-12-11T07:30:21.085Z,66.66
2022-12-11T07:31:21.160Z,66.66
2022-12-11T07:32:21.229Z,66.63
2022-12-11T07:33:21.050Z,66.66
2022-12-11T07:34:21.069Z,66.63
2022-12-11T07:35:21.049Z,66.63
2022-12-11T07:36:21.050Z,66.85
2022-12-11T07:37:21.037Z,66.82
2022-12-11T07:38:21.035Z,66.63
2022-12-11T07:39:21.038Z,66.66
2022-12-11T07:40:21.030Z,66.63
2022-12-11T07:41:21.013Z,67.11
2022-12-11T07:42:21.014Z,66.63
2022-12-11T07:43:21.027Z,66.63
2022-12-11T07:44:21.003Z,66.63
2022-12-11T07:45:20.976Z,66.66
2022-12-11T07:46:21.069Z,66.63
2022-12-11T07:47:20.980Z,66.63
2022-12-11T07:48:21.190Z,66.72
2022-12-11T07:49:20.971Z,66.63
2022-12-11T07:50:20.952Z,66.63
2022-12-11T07:51:20.942Z,66.66
2022-12-11T07:52:20.957Z,66.76
2022-12-11T07:53:20.947Z,66.66
2022-12-11T07:54:20.942Z,67.01
2022-12-11T07:55:20.934Z,67.21
2022-12-11T07:56:20.929Z,66.63
2022-12-11T07:57:20.912Z,66.72
2022-12-11T07:58:20.916Z,66.63
2022-12-11T07:59:20.924Z,66.63
2022-12-11T08:00:20.912Z,66.63
2022-12-11T08:01:20.963Z,66.66
2022-12-11T08:02:20.918Z,66.63
2022-12-11T08:03:20.872Z,66.63
2022-12-11T08:04:20.880Z,66.82
2022-12-11T08:05:20.858Z,66.63
2022-12-11T08:06:20.870Z,66.63
2022-12-11T08:07:20.855Z,66.72
2022-12-11T08:08:20.947Z,66.63
2022-12-11T08:09:21.498Z,66.63
2022-12-11T08:10:20.839Z,66.56
2022-12-11T08:11:20.818Z,66.63
2022-12-11T08:12:20.837Z,66.63
2022-12-11T08:13:20.835Z,66.66
2022-12-11T08:14:20.804Z,66.63
2022-12-11T08:15:20.834Z,66.63
2022-12-11T08:16:20.839Z,66.63
2022-12-11T08:17:25.896Z,66.66
2022-12-11T08:18:20.795Z,66.63
2022-12-11T08:19:20.783Z,66.53
2022-12-11T08:20:20.768Z,66.66
2022-12-11T08:21:20.781Z,66.92
2022-12-11T08:22:20.767Z,66.63
2022-12-11T08:23:20.757Z,66.63
2022-12-11T08:24:20.762Z,66.63
2022-12-11T08:25:20.735Z,66.66
2022-12-11T08:26:20.736Z,66.63
2022-12-11T08:27:20.722Z,66.63
2022-12-11T08:28:20.721Z,66.63
2022-12-11T08:29:20.730Z,66.63
2022-12-11T08:30:20.719Z,66.82
2022-12-11T08:31:20.815Z,66.82
2022-12-11T08:32:20.707Z,66.66
2022-12-11T08:33:20.696Z,66.72
2022-12-11T08:34:20.695Z,66.63
2022-12-11T08:35:20.672Z,66.63
2022-12-11T08:36:20.691Z,66.63
2022-12-11T08:37:20.671Z,66.63
2022-12-11T08:38:25.196Z,66.72
2022-12-11T08:39:20.660Z,66.63
2022-12-11T08:40:20.645Z,67.11
2022-12-11T08:41:20.645Z,66.63
2022-12-11T08:42:20.636Z,66.72
2022-12-11T08:43:20.638Z,66.72
2022-12-11T08:44:20.620Z,66.82
2022-12-11T08:45:20.610Z,66.82
2022-12-11T08:46:20.696Z,66.82
2022-12-11T08:47:20.688Z,66.95
2022-12-11T08:48:20.604Z,66.85
2022-12-11T08:49:20.599Z,66.66
2022-12-11T08:50:20.597Z,66.66
2022-12-11T08:51:20.574Z,66.66
2022-12-11T08:52:20.586Z,66.56
2022-12-11T08:53:20.574Z,66.38
2022-12-11T08:54:20.560Z,66.56
2022-12-11T08:55:20.561Z,66.28
2022-12-11T08:56:20.568Z,66.66
2022-12-11T08:57:20.550Z,66.19
2022-12-11T08:58:20.586Z,65.80
2022-12-11T08:59:20.581Z,65.90
2022-12-11T09:00:20.541Z,66.19
2022-12-11T09:01:20.572Z,66.09
2022-12-11T09:02:20.602Z,65.90
2022-12-11T09:03:20.522Z,65.64
2022-12-11T09:04:20.507Z,65.26
2022-12-11T09:05:20.490Z,65.61
2022-12-11T09:06:20.495Z,65.64
2022-12-11T09:07:20.503Z,65.64
2022-12-11T09:08:20.567Z,65.64
2022-12-11T09:09:20.487Z,65.64
2022-12-11T09:10:20.481Z,65.36
2022-12-11T09:11:20.472Z,65.55
2022-12-11T09:12:20.468Z,65.64
2022-12-11T09:13:20.469Z,65.45
2022-12-11T09:14:20.445Z,65.26
2022-12-11T09:15:20.457Z,65.36
2022-12-11T09:16:20.513Z,64.98
2022-12-11T09:17:20.436Z,64.98
2022-12-11T09:18:20.436Z,64.82
2022-12-11T09:19:20.460Z,64.82
2022-12-11T09:20:20.521Z,64.98
2022-12-11T09:21:20.408Z,65.07
2022-12-11T09:22:20.414Z,65.01
2022-12-11T09:23:20.400Z,64.91
2022-12-11T09:24:20.403Z,65.20
2022-12-11T09:25:20.402Z,64.43
2022-12-11T09:26:20.384Z,65.39
2022-12-11T09:27:20.391Z,65.11
2022-12-11T09:28:20.368Z,64.82
2022-12-11T09:29:20.387Z,64.91
2022-12-11T09:30:20.379Z,64.43
2022-12-11T09:31:20.469Z,64.62
2022-12-11T09:32:20.363Z,64.82
2022-12-11T09:33:20.349Z,64.82
2022-12-11T09:34:23.653Z,64.34
2022-12-11T09:35:20.360Z,64.18
2022-12-11T09:36:20.329Z,64.53
2022-12-11T09:37:20.329Z,64.37
2022-12-11T09:38:20.319Z,63.99
2022-12-11T09:39:20.343Z,64.09
2022-12-11T09:40:20.325Z,64.28
2022-12-11T09:41:20.348Z,64.09
2022-12-11T09:42:20.312Z,63.99
2022-12-11T09:43:20.310Z,63.51
2022-12-11T09:44:20.293Z,63.70
2022-12-11T09:45:20.290Z,63.23
2022-12-11T09:46:24.431Z,63.45
2022-12-11T09:47:20.286Z,63.64
2022-12-11T09:48:20.278Z,63.35
2022-12-11T09:49:20.283Z,63.45
2022-12-11T09:50:20.278Z,63.45
2022-12-11T09:51:20.296Z,63.26
2022-12-11T09:52:20.255Z,63.26
2022-12-11T09:53:20.258Z,63.26
2022-12-11T09:54:20.252Z,63.16
2022-12-11T09:55:20.262Z,63.16
2022-12-11T09:56:20.255Z,63.16
2022-12-11T09:57:20.259Z,63.45
2022-12-11T09:58:20.250Z,63.39
2022-12-11T09:59:20.247Z,63.29
2022-12-11T10:00:20.234Z,63.39
2022-12-11T10:01:20.300Z,63.39
2022-12-11T10:02:20.277Z,63.39
2022-12-11T10:03:20.217Z,63.76
2022-12-11T10:04:20.232Z,63.39
2022-12-11T10:05:20.205Z,63.29
2022-12-11T10:06:20.197Z,63.39
2022-12-11T10:07:20.244Z,63.29
2022-12-11T10:08:20.245Z,63.48
2022-12-11T10:09:20.189Z,63.39
2022-12-11T10:10:20.218Z,63.10
2022-12-11T10:11:20.189Z,63.39
2022-12-11T10:12:20.230Z,63.29
2022-12-11T10:13:20.188Z,63.67
2022-12-11T10:14:20.178Z,63.57
2022-12-11T10:15:20.174Z,63.57
2022-12-11T10:16:20.278Z,63.48
2022-12-11T10:17:20.163Z,63.76
2022-12-11T10:18:20.161Z,63.96
2022-12-11T10:19:20.153Z,64.15
2022-12-11T10:20:20.158Z,64.15
2022-12-11T10:21:20.161Z,64.34
2022-12-11T10:22:20.134Z,64.15
2022-12-11T10:23:20.187Z,64.05
2022-12-11T10:24:41.925Z,64.53
2022-12-11T10:25:20.143Z,64.25
2022-12-11T10:26:20.120Z,64.53
2022-12-11T10:27:20.141Z,64.34
2022-12-11T10:28:20.111Z,64.63
2022-12-11T10:29:20.114Z,64.53
2022-12-11T10:30:20.120Z,64.63
2022-12-11T10:31:20.179Z,64.82
2022-12-11T10:32:20.108Z,64.92
2022-12-11T10:33:20.096Z,65.20
2022-12-11T10:34:20.101Z,64.72
2022-12-11T10:35:20.088Z,65.01
2022-12-11T10:36:20.079Z,65.30
2022-12-11T10:37:20.080Z,65.11
2022-12-11T10:38:20.077Z,65.11
2022-12-11T10:39:20.106Z,64.82
2022-12-11T10:40:20.074Z,65.01
2022-12-11T10:41:20.064Z,65.49
2022-12-11T10:42:20.065Z,65.74
2022-12-11T10:43:20.069Z,65.84
2022-12-11T10:44:20.062Z,65.74
2022-12-11T10:45:20.052Z,65.65
2022-12-11T10:46:20.133Z,65.55
2022-12-11T10:47:20.052Z,65.74
2022-12-11T10:48:20.032Z,65.74
2022-12-11T10:49:20.055Z,65.55
2022-12-11T10:50:20.044Z,65.55
2022-12-11T10:51:20.021Z,65.65
2022-12-11T10:52:20.032Z,65.84
2022-12-11T10:53:20.044Z,66.03
2022-12-11T10:54:20.024Z,66.51
2022-12-11T10:55:20.043Z,66.32
2022-12-11T10:56:20.024Z,65.94
2022-12-11T10:57:20.003Z,65.84
2022-12-11T10:58:20.011Z,66.22
2022-12-11T10:59:24.013Z,66.70
2022-12-11T11:00:19.992Z,66.51
2022-12-11T11:01:20.074Z,66.41
2022-12-11T11:02:20.052Z,66.61
2022-12-11T11:03:19.998Z,66.41
2022-12-11T11:04:19.975Z,66.70
2022-12-11T11:05:19.963Z,66.86
2022-12-11T11:06:19.960Z,67.69
2022-12-11T11:07:19.973Z,69.09
2022-12-11T11:08:20.056Z,70.48
2022-12-11T11:09:19.956Z,71.31
2022-12-11T11:10:19.947Z,73.37
2022-12-11T11:11:19.955Z,74.01
2022-12-11T11:12:19.920Z,75.34
2022-12-11T11:13:19.940Z,76.25
2022-12-11T11:14:19.915Z,76.44
2022-12-11T11:15:19.925Z,77.36
2022-12-11T11:16:19.935Z,77.61
2022-12-11T11:17:19.924Z,78.27
2022-12-11T11:18:19.925Z,78.75
2022-12-11T11:19:19.878Z,79.38
2022-12-11T11:20:19.879Z,79.75
2022-12-11T11:21:19.874Z,80.13
2022-12-11T11:22:19.870Z,80.19
2022-12-11T11:23:19.859Z,80.29
2022-12-11T11:24:19.848Z,80.86
2022-12-11T11:25:19.843Z,80.57
2022-12-11T11:26:19.830Z,81.38
2022-12-11T11:27:19.825Z,80.82
2022-12-11T11:28:19.813Z,81.38
2022-12-11T11:29:19.796Z,81.48
2022-12-11T11:30:19.792Z,81.29
2022-12-11T11:31:19.844Z,81.20
2022-12-11T11:32:19.788Z,81.29
2022-12-11T11:33:19.771Z,81.92
2022-12-11T11:34:19.740Z,81.16
2022-12-11T11:35:19.732Z,81.25
2022-12-11T11:36:19.741Z,81.06
2022-12-11T11:37:19.711Z,81.73
2022-12-11T11:38:19.710Z,81.82
2022-12-11T11:39:19.696Z,81.73
2022-12-11T11:40:19.682Z,81.25
2022-12-11T11:41:19.673Z,80.87
2022-12-11T11:42:19.672Z,81.16
2022-12-11T11:43:19.669Z,81.44
2022-12-11T11:44:19.635Z,80.68
2022-12-11T11:45:19.642Z,80.83
2022-12-11T11:46:19.634Z,81.02
2022-12-11T11:47:19.624Z,81.21
2022-12-11T11:48:19.610Z,80.83
2022-12-11T11:49:19.593Z,80.35
2022-12-11T11:50:19.570Z,80.35
2022-12-11T11:51:19.575Z,80.74
2022-12-11T11:52:19.565Z,80.16
2022-12-11T11:53:19.554Z,79.79
2022-12-11T11:54:19.528Z,79.97
2022-12-11T11:55:22.467Z,80.07
2022-12-11T11:56:19.516Z,80.16
2022-12-11T11:57:19.495Z,79.69
2022-12-11T11:58:19.498Z,79.88
2022-12-11T11:59:19.509Z,79.88
2022-12-11T12:00:19.457Z,79.97
2022-12-11T12:01:19.466Z,79.88
2022-12-11T12:02:19.537Z,79.88
2022-12-11T12:03:19.442Z,80.07
2022-12-11T12:04:19.416Z,79.97
2022-12-11T12:05:19.416Z,79.60
2022-12-11T12:06:19.390Z,79.03
2022-12-11T12:07:19.385Z,78.30
2022-12-11T12:08:19.401Z,77.73
2022-12-11T12:09:19.463Z,77.26
2022-12-11T12:10:19.367Z,76.63
2022-12-11T12:11:19.354Z,76.25
2022-12-11T12:12:25.466Z,75.78
2022-12-11T12:13:48.017Z,74.82
2022-12-11T12:14:50.579Z,74.29
2022-12-11T12:15:19.329Z,73.91
2022-12-11T12:16:51.103Z,73.25
2022-12-11T12:17:19.413Z,72.90
2022-12-11T12:18:19.304Z,73.00
2022-12-11T12:19:19.268Z,72.24
2022-12-11T12:20:19.255Z,72.05
2022-12-11T12:21:19.248Z,71.22
2022-12-11T12:22:19.224Z,71.42
2022-12-11T12:23:19.233Z,70.75
2022-12-11T12:24:19.203Z,71.13
2022-12-11T12:25:19.210Z,70.84
2022-12-11T12:26:19.199Z,70.69
2022-12-11T12:27:50.610Z,70.31
2022-12-11T12:28:19.168Z,70.02
2022-12-11T12:29:19.164Z,70.02
2022-12-11T12:30:22.944Z,69.45
2022-12-11T12:31:19.267Z,69.35
2022-12-11T12:32:19.140Z,69.45
2022-12-11T12:33:19.141Z,69.26
2022-12-11T12:34:19.131Z,68.72
2022-12-11T12:35:19.116Z,68.82
2022-12-11T12:36:19.116Z,68.44
2022-12-11T12:37:19.110Z,68.72
2022-12-11T12:38:19.087Z,68.53
2022-12-11T12:39:19.087Z,69.01
2022-12-11T12:40:19.072Z,68.53
2022-12-11T12:41:19.094Z,68.18
2022-12-11T12:42:19.061Z,68.34
2022-12-11T12:43:19.065Z,68.09
2022-12-11T12:44:19.068Z,68.09
2022-12-11T12:45:19.044Z,67.90
2022-12-11T12:46:19.085Z,67.90
2022-12-11T12:47:19.054Z,67.52
2022-12-11T12:48:19.015Z,67.80
2022-12-11T12:49:19.032Z,67.80
2022-12-11T12:50:19.013Z,67.23
2022-12-11T12:51:19.000Z,67.33
2022-12-11T12:52:19.001Z,67.52
2022-12-11T12:53:19.004Z,67.61